Time;durP1;ratioP1;P1;durP2;ratioP2;P2;SDS_P1;SDS_P2;PMS_P1;PMS_P2;Temp;Humidity;BMP_temperature;BMP_pressure;BME280_temperature;BME280_humidity;BME280_pressure;Samples;Min_cycle;Max_cycle;Signal;HPM_P1;HPM_P2
2023/09/07 00:06:59;;;;;;;13.40;7.43;;;;;;;27.52;64.90;100581.06;20647367;28;20047;-71
2023/09/07 00:17:22;;;;;;;15.93;7.93;;;;;;;27.79;60.19;100554.16;20647232;28;20078;-71
2023/09/07 00:27:46;;;;;;;14.20;7.70;;;;;;;27.97;55.24;100561.19;20642654;28;20046;-71
2023/09/07 00:38:11;;;;;;;10.10;5.90;;;;;;;27.96;54.54;100536.88;20641547;28;20054;-71
2023/09/07 00:48:36;;;;;;;12.43;7.15;;;;;;;27.82;54.31;100551.28;20657594;28;20128;-71
2023/09/07 00:59:00;;;;;;;12.55;7.15;;;;;;;27.56;56.30;100546.50;20657440;28;20050;-71
2023/09/07 01:09:29;;;;;;;11.90;6.60;;;;;;;27.49;55.97;100564.94;20679889;28;20038;-71
2023/09/07 01:19:54;;;;;;;10.57;6.70;;;;;;;27.60;54.18;100570.66;20660124;28;20165;-71
2023/09/07 01:30:19;;;;;;;13.77;6.60;;;;;;;27.61;53.34;100547.09;20645186;28;20521;-71
2023/09/07 01:40:43;;;;;;;12.57;5.75;;;;;;;27.65;52.54;100543.25;20640804;28;20054;-71
2023/09/07 01:51:08;;;;;;;12.32;6.70;;;;;;;27.56;52.75;100565.50;20642079;28;20112;-71
2023/09/07 02:01:36;;;;;;;15.48;6.40;;;;;;;27.51;52.48;100567.53;20653120;28;20054;-71
2023/09/07 02:12:00;;;;;;;;;;;;;;;27.48;51.97;100568.59;20637192;28;20054;-71
2023/09/07 02:22:23;;;;;;;13.75;5.97;;;;;;;27.39;52.69;100563.69;20647555;28;20009;-71
2023/09/07 02:32:49;;;;;;;14.70;6.50;;;;;;;27.15;54.14;100560.56;20626770;28;20082;-71
2023/09/07 02:43:12;;;;;;;11.82;5.93;;;;;;;27.02;54.58;100558.63;20626151;28;20194;-71
2023/09/07 02:53:37;;;;;;;12.48;6.68;;;;;;;26.92;55.19;100550.97;20649745;28;20062;-72
2023/09/07 03:04:00;;;;;;;13.75;6.18;;;;;;;26.71;57.13;100541.31;20657916;28;20524;-71
2023/09/07 03:14:25;;;;;;;12.40;7.03;;;;;;;26.46;59.99;100557.09;20649011;28;20070;-71
2023/09/07 03:24:48;;;;;;;12.30;6.13;;;;;;;26.34;61.09;100557.78;20594427;28;20057;-72
2023/09/07 03:35:12;;;;;;;14.07;6.38;;;;;;;26.30;60.42;100575.13;20641503;28;20050;-71
2023/09/07 03:45:35;;;;;;;13.07;6.07;;;;;;;26.17;59.83;100581.16;20633075;28;20137;-71
2023/09/07 03:56:00;;;;;;;12.43;6.13;;;;;;;26.30;60.18;100575.13;20658294;28;20058;-71
2023/09/07 04:06:23;;;;;;;12.75;6.53;;;;;;;26.07;63.49;100590.69;20627446;28;20057;-72
2023/09/07 04:16:48;;;;;;;17.45;6.50;;;;;;;26.07;65.72;100609.63;20654204;28;20061;-72
2023/09/07 04:27:11;;;;;;;12.73;7.18;;;;;;;26.36;67.71;100613.59;20650615;28;20050;-72
2023/09/07 04:37:35;;;;;;;13.40;5.95;;;;;;;26.69;71.00;100615.47;20653870;28;20307;-72
2023/09/07 04:47:58;;;;;;;12.88;5.60;;;;;;;27.01;70.93;100625.50;20653216;28;20571;-72
2023/09/07 04:58:23;;;;;;;13.90;5.47;;;;;;;27.50;73.77;100623.66;20655819;28;20104;-72
2023/09/07 05:08:46;;;;;;;17.98;5.93;;;;;;;28.14;78.05;100638.97;20653676;28;20444;-72
2023/09/07 05:19:10;;;;;;;13.52;6.40;;;;;;;28.73;74.18;100661.66;20631442;28;20074;-72
2023/09/07 05:29:34;;;;;;;18.90;5.75;;;;;;;29.31;68.89;100650.75;20643406;28;20050;-72
2023/09/07 05:39:59;;;;;;;18.35;6.20;;;;;;;29.96;66.05;100654.69;20659036;28;20385;-72
2023/09/07 05:50:22;;;;;;;12.40;6.40;;;;;;;30.47;68.44;100647.56;20589618;28;20057;-72
2023/09/07 06:00:47;;;;;;;11.10;6.20;;;;;;;31.26;72.03;100644.72;20578058;28;20491;-72
2023/09/07 06:11:10;;;;;;;12.40;5.60;;;;;;;32.13;66.71;100662.84;20577193;28;20069;-72
2023/09/07 06:21:35;;;;;;;15.88;6.20;;;;;;;32.88;70.13;100663.47;20576190;28;20110;-72
2023/09/07 06:31:58;;;;;;;11.80;5.97;;;;;;;33.19;71.49;100684.69;20643283;28;20169;-72
2023/09/07 06:42:22;;;;;;;16.70;7.32;;;;;;;33.14;66.63;100692.34;20641591;28;20053;-72
2023/09/07 06:52:54;;;;;;;12.10;7.18;;;;;;;32.87;75.83;100704.59;20655110;28;20062;-72
2023/09/07 07:03:20;;;;;;;11.48;6.70;;;;;;;32.22;95.74;100711.38;20639678;28;20089;-72
2023/09/07 07:13:43;;;;;;;11.38;6.60;;;;;;;32.55;92.36;100712.53;20652511;28;20137;-72
2023/09/07 07:24:09;;;;;;;12.90;7.22;;;;;;;33.32;79.67;100720.16;20653078;28;20038;-72
2023/09/07 07:34:32;;;;;;;11.13;6.32;;;;;;;34.22;67.92;100704.56;20652383;28;20054;-71
2023/09/07 07:44:58;;;;;;;12.23;6.35;;;;;;;34.50;62.30;100705.84;20638512;28;20050;-72
2023/09/07 07:55:21;;;;;;;10.90;5.63;;;;;;;34.77;55.10;100698.88;20651841;28;20066;-72
2023/09/07 08:05:45;;;;;;;10.30;5.85;;;;;;;34.73;51.75;100693.78;20651955;28;20153;-72
2023/09/07 08:16:09;;;;;;;10.52;6.40;;;;;;;34.90;49.59;100689.59;20650377;28;20149;-72
2023/09/07 08:26:34;;;;;;;10.63;5.75;;;;;;;35.21;42.39;100696.03;20636096;28;20097;-72
2023/09/07 08:36:59;;;;;;;11.35;5.47;;;;;;;35.91;36.03;100688.69;20650592;28;20058;-72
2023/09/07 08:47:24;;;;;;;9.23;4.70;;;;;;;35.79;41.40;100672.44;20636983;28;20141;-72
2023/09/07 08:57:47;;;;;;;9.85;5.65;;;;;;;35.08;49.06;100658.63;20636726;28;20093;-72
2023/09/07 09:08:12;;;;;;;12.50;6.07;;;;;;;34.84;49.64;100668.16;20660687;28;20146;-72
2023/09/07 09:18:35;;;;;;;11.60;6.15;;;;;;;34.60;52.82;100658.28;20656029;28;20693;-72
2023/09/07 09:29:01;;;;;;;11.50;6.32;;;;;;;34.40;48.92;100646.28;20674262;28;20581;-71
2023/09/07 09:39:25;;;;;;;12.45;5.63;;;;;;;34.05;44.83;100656.63;20659457;28;20054;-72
2023/09/07 09:49:51;;;;;;;14.85;5.60;;;;;;;34.93;33.27;100617.94;20658998;28;20137;-72
2023/09/07 10:00:25;;;;;;;10.55;5.20;;;;;;;34.30;45.59;100603.34;20643914;28;20586;-72
2023/09/07 10:10:54;;;;;;;13.75;7.65;;;;;;;33.93;52.43;100622.91;20662088;28;20136;-72
2023/09/07 10:21:17;;;;;;;10.60;6.47;;;;;;;33.97;62.62;100628.97;20654230;28;20050;-71
2023/09/07 10:31:52;;;;;;;10.95;6.57;;;;;;;34.42;67.28;100634.31;20641477;28;20046;-71
2023/09/07 10:42:23;;;;;;;15.23;6.33;;;;;;;34.24;69.24;100632.16;20653644;28;20142;-72
2023/09/07 10:52:49;;;;;;;14.27;7.45;;;;;;;33.19;86.79;100605.31;20626863;28;20246;-71
2023/09/07 11:03:14;;;;;;;16.17;7.60;;;;;;;32.77;100.00;100586.81;20638465;28;20050;-71
2023/09/07 11:13:38;;;;;;;15.80;7.90;;;;;;;33.02;100.00;100581.13;20650498;28;20709;-71
2023/09/07 11:24:04;;;;;;;19.45;7.78;;;;;;;32.65;100.00;100572.25;20649887;28;20475;-71
2023/09/07 11:34:29;;;;;;;17.15;7.65;;;;;;;32.69;100.00;100565.53;20643252;28;20368;-72
2023/09/07 11:44:52;;;;;;;9.60;6.20;;;;;;;33.09;88.46;100557.72;20652999;28;20066;-71
2023/09/07 11:55:18;;;;;;;13.75;7.68;;;;;;;33.21;85.30;100539.50;20628185;28;20522;-72
2023/09/07 12:05:44;;;;;;;12.67;6.80;;;;;;;33.10;84.07;100543.06;20644670;28;20105;-71
2023/09/07 12:16:09;;;;;;;13.90;6.53;;;;;;;33.21;79.21;100539.50;20634321;28;20054;-71
2023/09/07 12:26:32;;;;;;;9.63;6.00;;;;;;;32.94;72.59;100545.31;20653814;28;20057;-72
2023/09/07 12:36:58;;;;;;;10.50;6.63;;;;;;;32.82;77.47;100555.38;20648204;28;20078;-72
2023/09/07 12:47:23;;;;;;;10.52;6.32;;;;;;;32.58;71.66;100556.44;20661627;28;20137;-72
2023/09/07 12:57:48;;;;;;;13.57;6.25;;;;;;;32.55;70.19;100557.56;20659786;28;20078;-72
2023/09/07 13:08:12;;;;;;;11.68;6.10;;;;;;;32.76;66.25;100549.53;20647095;28;20104;-72
2023/09/07 13:18:38;;;;;;;10.43;6.32;;;;;;;32.75;71.82;100535.00;20657254;28;20644;-72
2023/09/07 13:29:01;;;;;;;13.93;7.18;;;;;;;32.68;73.70;100544.69;20645532;28;20050;-72
2023/09/07 13:39:25;;;;;;;14.18;7.35;;;;;;;32.66;83.32;100543.91;20656991;28;20085;-72
2023/09/07 13:49:48;;;;;;;13.98;6.90;;;;;;;32.61;92.26;100531.59;20657770;28;20055;-72
2023/09/07 14:00:13;;;;;;;13.30;7.10;;;;;;;32.46;100.00;100536.41;20651467;28;20054;-72
2023/09/07 14:10:35;;;;;;;13.48;7.43;;;;;;;32.33;100.00;100539.25;20651548;28;20050;-72
2023/09/07 14:21:01;;;;;;;13.35;7.53;;;;;;;32.41;100.00;100525.84;20685639;28;20054;-71
2023/09/07 14:31:24;;;;;;;13.73;7.75;;;;;;;31.90;100.00;100528.00;20648486;28;20050;-72
2023/09/07 14:41:48;;;;;;;12.82;8.32;;;;;;;31.31;100.00;100543.41;20652870;28;20100;-71
2023/09/07 14:52:11;;;;;;;14.50;8.07;;;;;;;30.86;100.00;100532.13;20647727;28;20046;-71
2023/09/07 15:02:36;;;;;;;12.80;7.95;;;;;;;30.76;100.00;100538.38;20647981;28;20566;-72
2023/09/07 15:12:58;;;;;;;11.70;7.00;;;;;;;30.65;100.00;100527.38;20649809;28;20054;-72
2023/09/07 15:23:24;;;;;;;10.80;6.88;;;;;;;30.47;100.00;100527.66;20650356;28;20497;-71
2023/09/07 15:33:47;;;;;;;11.52;7.43;;;;;;;30.41;100.00;100519.91;20642869;28;20394;-72
2023/09/07 15:44:11;;;;;;;14.98;8.68;;;;;;;30.33;100.00;100519.56;20648760;28;20129;-72
2023/09/07 15:54:34;;;;;;;14.50;8.18;;;;;;;30.34;100.00;100520.44;20648345;28;20081;-72
2023/09/07 16:04:59;;;;;;;20.92;8.23;;;;;;;30.29;100.00;100517.19;20663303;28;20054;-72
2023/09/07 16:15:21;;;;;;;17.63;8.52;;;;;;;30.16;100.00;100535.34;20664552;28;20402;-72
2023/09/07 16:25:47;;;;;;;19.98;9.23;;;;;;;29.95;100.00;100533.13;20664510;28;20502;-72
2023/09/07 16:36:10;;;;;;;18.83;9.18;;;;;;;29.73;100.00;100531.97;20646435;28;20050;-72
2023/09/07 16:46:34;;;;;;;14.45;8.98;;;;;;;29.39;100.00;100544.22;20652200;28;20050;-73
2023/09/07 16:56:57;;;;;;;15.68;9.57;;;;;;;28.98;100.00;100555.91;20652780;28;20054;-72
2023/09/07 17:07:22;;;;;;;13.98;9.88;;;;;;;28.74;100.00;100565.59;20652723;28;20077;-72
2023/09/07 17:17:45;;;;;;;15.45;8.95;;;;;;;28.66;100.00;100589.63;20664046;28;20144;-72
2023/09/07 17:28:09;;;;;;;15.70;9.77;;;;;;;28.64;100.00;100606.03;20664289;28;20060;-72
2023/09/07 17:38:33;;;;;;;14.85;10.20;;;;;;;28.61;100.00;100611.66;20664430;28;20058;-72
2023/09/07 17:48:57;;;;;;;16.13;10.05;;;;;;;28.50;100.00;100612.31;20663641;28;20054;-72
2023/09/07 17:59:20;;;;;;;16.55;10.60;;;;;;;28.24;100.00;100634.72;20663288;28;20057;-72
2023/09/07 18:09:44;;;;;;;16.60;12.57;;;;;;;28.05;100.00;100634.91;20662280;28;20489;-73
2023/09/07 18:20:10;;;;;;;14.52;11.07;;;;;;;27.83;100.00;100641.72;20660405;28;20101;-72
2023/09/07 18:30:36;;;;;;;16.63;10.98;;;;;;;27.61;100.00;100633.91;20661019;28;20565;-72
2023/09/07 18:41:01;;;;;;;18.95;13.82;;;;;;;27.49;100.00;100650.84;20659095;28;20471;-72
2023/09/07 18:51:27;;;;;;;16.13;10.55;;;;;;;27.37;100.00;100655.13;20657885;28;20046;-72
2023/09/07 19:01:52;;;;;;;13.95;10.07;;;;;;;27.26;100.00;100650.28;20657514;28;20406;-72
2023/09/07 19:12:17;;;;;;;18.15;10.13;;;;;;;27.09;100.00;100641.34;20656815;28;20520;-72
2023/09/07 19:22:40;;;;;;;15.52;10.23;;;;;;;26.92;100.00;100645.81;20655942;28;20050;-72
2023/09/07 19:33:06;;;;;;;16.30;10.20;;;;;;;26.83;100.00;100640.00;20632711;28;20050;-72
2023/09/07 19:43:29;;;;;;;16.45;10.55;;;;;;;26.76;100.00;100639.47;20643507;28;20073;-72
2023/09/07 19:53:54;;;;;;;16.35;10.13;;;;;;;26.69;100.00;100638.03;20636050;28;20066;-71
2023/09/07 20:04:17;;;;;;;13.95;9.88;;;;;;;26.55;100.00;100643.28;20648473;28;20371;-72
2023/09/07 20:14:42;;;;;;;18.45;10.50;;;;;;;26.39;100.00;100629.66;20644657;28;20450;-72
2023/09/07 20:25:05;;;;;;;15.25;10.73;;;;;;;26.26;100.00;100622.25;20642633;28;20039;-72
2023/09/07 20:35:31;;;;;;;14.40;9.25;;;;;;;26.07;100.00;100617.75;20629970;28;20057;-72
2023/09/07 20:45:55;;;;;;;15.13;9.70;;;;;;;26.11;100.00;100613.97;20646072;28;20402;-72
2023/09/07 20:56:21;;;;;;;12.50;9.35;;;;;;;26.09;100.00;100605.03;20658724;28;20038;-72
2023/09/07 21:06:44;;;;;;;14.32;9.73;;;;;;;25.99;100.00;100603.72;20613909;28;20402;-72
2023/09/07 21:17:09;;;;;;;12.32;9.98;;;;;;;25.86;100.00;100599.03;20590433;28;20491;-72
2023/09/07 21:27:32;;;;;;;13.23;9.77;;;;;;;25.73;100.00;100604.19;20599281;28;20043;-72
2023/09/07 21:37:57;;;;;;;14.60;10.05;;;;;;;25.67;100.00;100613.44;20660284;28;20050;-72
2023/09/07 21:48:20;;;;;;;14.55;10.35;;;;;;;25.51;100.00;100598.91;20659920;28;20050;-71
2023/09/07 21:58:45;;;;;;;14.57;8.85;;;;;;;25.49;100.00;100595.41;20644465;28;20057;-72
2023/09/07 22:09:08;;;;;;;15.60;11.23;;;;;;;25.35;100.00;100589.78;20643565;28;20054;-72
2023/09/07 22:19:33;;;;;;;14.48;10.85;;;;;;;25.21;100.00;100585.03;20656178;28;20406;-72
2023/09/07 22:29:56;;;;;;;18.65;11.30;;;;;;;25.15;100.00;100588.03;20656804;28;20085;-72
2023/09/07 22:40:24;;;;;;;15.23;11.93;;;;;;;25.09;100.00;100580.22;20654893;28;20053;-72
2023/09/07 22:50:48;;;;;;;13.77;11.07;;;;;;;24.95;100.00;100574.56;20655641;28;20042;-72
2023/09/07 23:01:14;;;;;;;18.15;11.27;;;;;;;24.86;100.00;100574.97;20639576;28;20061;-73
2023/09/07 23:11:37;;;;;;;15.25;11.77;;;;;;;24.70;100.00;100555.03;20652662;28;20648;-72
2023/09/07 23:22:03;;;;;;;14.32;12.00;;;;;;;24.67;100.00;100538.97;20651397;28;20065;-72
2023/09/07 23:32:26;;;;;;;15.48;11.65;;;;;;;24.58;100.00;100538.44;20577737;28;20169;-72
2023/09/07 23:42:51;;;;;;;16.08;12.25;;;;;;;24.48;100.00;100520.91;20650544;28;20050;-72
2023/09/07 23:53:14;;;;;;;18.80;12.32;;;;;;;24.23;100.00;100514.84;20638187;28;20066;-71
